Time;durP1;ratioP1;P1;durP2;ratioP2;P2;SDS_P1;SDS_P2;PMS_P1;PMS_P2;Temp;Humidity;BMP_temperature;BMP_pressure;BME280_temperature;BME280_humidity;BME280_pressure;Samples;Min_cycle;Max_cycle;Signal;HPM_P1;HPM_P2
2021/09/17 00:00:12;;;;;;;6.60;2.03;;;;;;;15.48;82.89;100333.80;4894265;59;1138741;-79
2021/09/17 00:05:19;;;;;;;6.10;1.85;;;;;;;15.56;82.81;100328.23;4894466;59;1138753;-79
2021/09/17 00:10:26;;;;;;;4.12;1.90;;;;;;;15.53;82.76;100325.84;4894426;59;1139125;-79
2021/09/17 00:15:33;;;;;;;4.53;2.10;;;;;;;15.52;83.12;100322.83;4894527;59;1138752;-78
2021/09/17 00:20:38;;;;;;;4.90;2.00;;;;;;;15.51;83.29;100321.16;4894260;59;1138667;-78
2021/09/17 00:25:44;;;;;;;7.17;3.50;;;;;;;15.54;83.35;100316.86;4894186;59;1138847;-78
2021/09/17 00:30:50;;;;;;;2.30;1.70;;;;;;;15.53;83.42;100314.69;4894177;59;1138883;-78
2021/09/17 00:35:55;;;;;;;1.57;1.47;;;;;;;15.51;83.58;100309.16;4894187;59;1138803;-79
2021/09/17 00:41:01;;;;;;;4.57;2.07;;;;;;;15.49;83.70;100300.83;4880138;59;1139036;-79
2021/09/17 00:46:07;;;;;;;3.00;2.17;;;;;;;15.48;83.79;100296.48;4817629;60;1138858;-78
2021/09/17 00:51:15;;;;;;;4.72;1.85;;;;;;;15.55;84.15;100295.88;4812176;60;1259715;-79
2021/09/17 00:56:21;;;;;;;4.87;1.93;;;;;;;15.51;84.00;100285.17;4817588;60;1138770;-79
2021/09/17 01:01:27;;;;;;;10.93;2.23;;;;;;;15.45;83.94;100293.28;4817731;60;1138787;-79
2021/09/17 01:06:34;;;;;;;3.60;2.17;;;;;;;15.41;84.27;100293.28;4817693;60;1140925;-78
2021/09/17 01:11:40;;;;;;;6.27;1.83;;;;;;;15.37;84.72;100292.75;4786091;60;1138933;-79
2021/09/17 01:16:46;;;;;;;3.63;2.27;;;;;;;15.33;84.79;100289.20;4817486;60;1139045;-79
2021/09/17 01:22:02;;;;;;;4.47;2.13;;;;;;;15.27;85.22;100282.69;4817401;60;1138765;-79
2021/09/17 01:27:09;;;;;;;7.63;2.10;;;;;;;15.22;85.62;100269.48;4817462;59;1139280;-78
2021/09/17 01:32:16;;;;;;;5.77;2.23;;;;;;;15.22;85.83;100270.31;4817825;60;1138943;-79
2021/09/17 01:37:21;;;;;;;3.92;2.60;;;;;;;15.21;86.20;100262.47;4817534;60;1138874;-79
2021/09/17 01:42:27;;;;;;;2.30;1.80;;;;;;;15.18;86.49;100270.77;4852873;59;1138717;-79
2021/09/17 01:47:33;;;;;;;1.97;1.87;;;;;;;15.21;86.62;100263.81;4894332;59;1138949;-80
2021/09/17 01:52:39;;;;;;;2.57;2.10;;;;;;;15.23;86.78;100256.01;4893200;59;1138964;-80
2021/09/17 01:57:45;;;;;;;2.90;1.83;;;;;;;15.22;86.94;100249.00;4893724;59;1138970;-80
2021/09/17 02:02:53;;;;;;;2.67;2.07;;;;;;;15.27;87.11;100256.05;4893689;59;1138863;-80
2021/09/17 02:07:59;;;;;;;5.57;2.07;;;;;;;15.28;87.07;100245.70;4893964;59;1138792;-79
2021/09/17 02:13:06;;;;;;;5.43;2.90;;;;;;;15.25;87.26;100244.70;4894225;59;1138952;-79
2021/09/17 02:18:12;;;;;;;5.80;2.70;;;;;;;15.25;87.57;100237.20;4862677;59;1138802;-80
2021/09/17 02:23:18;;;;;;;4.53;2.53;;;;;;;15.26;87.54;100230.89;4884351;59;1138977;-79
2021/09/17 02:28:23;;;;;;;7.80;2.87;;;;;;;15.28;87.70;100234.20;4940457;59;1139060;-79
2021/09/17 02:33:30;;;;;;;2.60;2.20;;;;;;;15.28;87.80;100229.70;4989855;59;21119;-79
2021/09/17 02:38:36;;;;;;;5.30;2.10;;;;;;;15.28;87.98;100227.05;4958156;59;21226;-79
2021/09/17 02:43:44;;;;;;;8.47;2.00;;;;;;;15.29;87.92;100226.05;4926633;60;21232;-80
2021/09/17 02:48:49;;;;;;;3.87;2.60;;;;;;;15.27;87.99;100221.90;4925991;60;22081;-80
2021/09/17 02:53:55;;;;;;;7.43;2.33;;;;;;;15.27;88.14;100215.23;4910939;60;22069;-80
2021/09/17 02:59:01;;;;;;;8.67;2.90;;;;;;;15.29;88.40;100211.89;4917593;60;21201;-80
2021/09/17 03:04:06;;;;;;;4.73;2.40;;;;;;;15.28;88.47;100211.55;4917765;60;22039;-80
2021/09/17 03:09:12;;;;;;;6.07;2.63;;;;;;;15.29;88.47;100210.06;4917918;59;21552;-78
2021/09/17 03:14:18;;;;;;;3.73;2.60;;;;;;;15.36;88.61;100199.63;4917720;60;21174;-79
2021/09/17 03:19:24;;;;;;;3.40;2.83;;;;;;;15.38;88.57;100202.48;4917775;60;21173;-79
2021/09/17 03:24:29;;;;;;;3.80;1.90;;;;;;;15.38;88.72;100197.16;4917694;59;21718;-77
2021/09/17 03:29:35;;;;;;;2.90;2.20;;;;;;;15.40;88.81;100198.33;4917746;60;21177;-80
2021/09/17 03:34:41;;;;;;;8.07;2.07;;;;;;;15.41;88.86;100197.34;4842775;59;1134902;-79
2021/09/17 03:39:47;;;;;;;1.83;1.73;;;;;;;15.41;88.99;100187.52;4860236;59;1139111;-78
2021/09/17 03:44:52;;;;;;;7.57;2.03;;;;;;;15.46;89.16;100187.02;4883793;59;1138821;-79
2021/09/17 03:49:58;;;;;;;3.70;2.80;;;;;;;15.44;89.25;100177.02;4874631;59;1138977;-78
2021/09/17 03:55:05;;;;;;;2.37;1.80;;;;;;;15.40;89.33;100178.34;4874409;59;1138901;-78
2021/09/17 04:00:13;;;;;;;2.00;1.70;;;;;;;15.38;89.54;100181.66;4874669;59;1138850;-79
2021/09/17 04:05:20;;;;;;;3.73;1.80;;;;;;;15.35;89.61;100174.81;4876298;59;1138838;-79
2021/09/17 04:10:26;;;;;;;2.47;1.95;;;;;;;15.35;90.19;100173.48;4873654;59;1139156;-78
2021/09/17 04:15:32;;;;;;;13.58;2.70;;;;;;;15.37;89.90;100178.66;4874337;59;1139040;-79
2021/09/17 04:20:38;;;;;;;4.50;2.20;;;;;;;15.37;89.97;100177.33;4874416;59;1140965;-79
2021/09/17 04:25:44;;;;;;;2.13;1.90;;;;;;;15.31;90.10;100172.11;4873973;59;1139054;-78
2021/09/17 04:30:52;;;;;;;3.63;2.60;;;;;;;15.36;90.24;100176.98;4874225;59;1138932;-78
2021/09/17 04:35:58;;;;;;;4.40;2.33;;;;;;;15.35;90.33;100178.81;4873780;59;1138935;-78
2021/09/17 04:41:04;;;;;;;2.10;2.00;;;;;;;15.33;90.57;100178.12;4874914;59;1139097;-79
2021/09/17 04:46:10;;;;;;;8.33;2.83;;;;;;;15.33;91.04;100179.46;4882005;59;1139074;-79
2021/09/17 04:51:16;;;;;;;3.13;2.13;;;;;;;15.31;91.18;100185.44;4881820;59;1139029;-78
2021/09/17 04:56:22;;;;;;;5.35;2.25;;;;;;;15.32;91.39;100181.78;4872262;59;1139078;-80
2021/09/17 05:01:28;;;;;;;4.73;2.77;;;;;;;15.35;91.43;100176.14;4847786;59;1139228;-78
2021/09/17 05:06:35;;;;;;;2.65;2.42;;;;;;;15.33;91.53;100168.80;4846537;59;1138793;-79
2021/09/17 05:11:41;;;;;;;4.03;2.50;;;;;;;15.34;92.25;100176.30;4817133;59;1138914;-79
2021/09/17 05:16:47;;;;;;;4.10;2.40;;;;;;;15.34;92.03;100176.30;4816950;59;1138750;-79
2021/09/17 05:21:56;;;;;;;4.28;2.74;;;;;;;15.32;92.23;100171.12;4817297;59;1138918;-79
2021/09/17 05:27:02;;;;;;;4.13;2.47;;;;;;;15.34;92.24;100173.14;4810029;60;1138955;-79
2021/09/17 05:32:08;;;;;;;4.17;2.83;;;;;;;15.36;92.64;100178.31;4805859;59;1138994;-79
2021/09/17 05:37:15;;;;;;;4.03;2.13;;;;;;;15.37;92.56;100171.99;4806781;59;1138934;-79
2021/09/17 05:42:23;;;;;;;5.30;2.73;;;;;;;15.39;93.16;100172.67;4841939;59;1139374;-79
2021/09/17 05:47:29;;;;;;;2.50;2.20;;;;;;;15.38;92.83;100169.67;4883837;59;1138812;-80
2021/09/17 05:52:35;;;;;;;5.03;2.43;;;;;;;15.40;93.16;100169.85;4883843;58;1139135;-78
2021/09/17 05:57:41;;;;;;;5.93;2.90;;;;;;;15.40;93.54;100173.85;4883546;59;1138975;-78
2021/09/17 06:02:47;;;;;;;5.57;2.07;;;;;;;15.40;93.68;100175.19;4883483;59;1139040;-78
2021/09/17 06:07:53;;;;;;;3.10;2.70;;;;;;;15.44;93.99;100173.02;4888470;59;1138820;-79
2021/09/17 06:12:58;;;;;;;3.67;2.70;;;;;;;15.45;93.77;100177.35;4893573;59;1138895;-79
2021/09/17 06:18:04;;;;;;;2.92;2.37;;;;;;;15.48;93.96;100169.05;4893701;59;1138865;-79
2021/09/17 06:23:10;;;;;;;7.87;2.50;;;;;;;15.51;94.28;100170.56;4890974;59;1138899;-80
2021/09/17 06:28:16;;;;;;;7.80;2.50;;;;;;;15.56;94.04;100170.96;4882574;59;1138887;-79
2021/09/17 06:33:22;;;;;;;3.30;2.10;;;;;;;15.61;93.91;100172.63;4883111;59;1139015;-79
2021/09/17 06:38:28;;;;;;;3.20;2.37;;;;;;;15.63;93.99;100178.14;4884086;59;1139205;-78
2021/09/17 06:43:33;;;;;;;5.30;2.70;;;;;;;15.67;94.04;100174.17;4818211;59;1138954;-79
2021/09/17 06:48:39;;;;;;;4.10;2.10;;;;;;;15.67;94.26;100172.00;4739563;60;1139060;-80
2021/09/17 06:53:45;;;;;;;4.33;2.37;;;;;;;15.67;95.36;100170.67;4739408;59;1138866;-79
2021/09/17 06:58:50;;;;;;;3.90;2.23;;;;;;;15.66;94.70;100165.84;4745041;59;1138964;-80
2021/09/17 07:03:56;;;;;;;4.00;2.03;;;;;;;15.67;95.64;100171.51;4667121;60;1139172;-79
2021/09/17 07:09:02;;;;;;;3.33;2.43;;;;;;;15.68;95.46;100169.68;4775623;59;1138848;-79
2021/09/17 07:14:08;;;;;;;5.13;2.60;;;;;;;15.70;95.56;100170.36;4778335;59;1138899;-78
2021/09/17 07:19:13;;;;;;;2.67;2.20;;;;;;;15.69;95.53;100168.19;4667437;60;1139093;-80
2021/09/17 07:24:19;;;;;;;5.13;2.97;;;;;;;15.67;95.85;100170.67;4741539;59;1139073;-80
2021/09/17 07:29:25;;;;;;;6.55;3.27;;;;;;;15.62;95.83;100168.97;4739014;60;1138855;-79
2021/09/17 07:34:30;;;;;;;7.40;3.30;;;;;;;15.63;95.93;100175.48;4665933;61;1138933;-79
2021/09/17 07:39:36;;;;;;;3.98;2.33;;;;;;;15.62;96.18;100175.64;4738775;60;1138951;-78
2021/09/17 07:44:42;;;;;;;4.30;2.70;;;;;;;15.67;96.80;100173.34;4667577;60;1139008;-79
2021/09/17 07:49:48;;;;;;;8.80;3.07;;;;;;;15.72;96.49;100187.03;4815523;59;1139034;-80
2021/09/17 07:54:53;;;;;;;3.97;2.07;;;;;;;15.76;96.50;100182.53;4816207;59;1138911;-80
2021/09/17 07:59:59;;;;;;;4.63;2.03;;;;;;;15.78;96.44;100181.88;4815222;59;1138887;-79
2021/09/17 08:05:05;;;;;;;4.90;2.37;;;;;;;15.81;97.06;100178.89;4667500;62;1139176;-82
2021/09/17 08:10:12;;;;;;;3.02;2.26;;;;;;;15.91;96.97;100185.42;4798990;59;1139049;-81
2021/09/17 08:15:19;;;;;;;2.77;1.30;;;;;;;16.03;97.22;100182.81;4684683;61;1138940;-79
2021/09/17 08:20:25;;;;;;;1.73;1.20;;;;;;;16.12;96.50;100179.66;4783113;59;1139079;-79
2021/09/17 08:25:31;;;;;;;1.50;1.40;;;;;;;16.17;95.95;100174.69;4814979;59;1139221;-79
2021/09/17 08:30:37;;;;;;;2.72;1.40;;;;;;;16.17;95.47;100178.19;4815279;59;1139061;-79
2021/09/17 08:35:44;;;;;;;2.07;1.00;;;;;;;16.25;96.12;100178.69;4810907;59;1138875;-81
2021/09/17 08:40:59;;;;;;;1.50;1.40;;;;;;;16.30;95.61;100179.04;4810442;59;1138981;-80
2021/09/17 08:46:06;;;;;;;1.40;1.20;;;;;;;16.27;95.08;100184.70;4813729;59;1139026;-81
2021/09/17 08:51:12;;;;;;;1.70;0.93;;;;;;;16.30;95.62;100185.71;4881636;59;1139109;-80
2021/09/17 08:56:20;;;;;;;1.43;1.17;;;;;;;16.28;95.27;100190.38;4855548;59;1148815;-80
2021/09/17 09:01:37;;;;;;;1.62;1.32;;;;;;;16.22;95.36;100195.02;4863055;59;1139129;-79
2021/09/17 09:06:48;;;;;;;3.50;1.83;;;;;;;16.13;95.96;100193.34;4882322;59;1138947;-78
2021/09/17 09:11:55;;;;;;;5.83;1.57;;;;;;;16.06;95.93;100190.47;4883740;59;1138893;-79
2021/09/17 09:17:04;;;;;;;2.23;1.50;;;;;;;16.08;96.42;100192.48;4883327;59;1138974;-79
2021/09/17 09:22:13;;;;;;;1.80;1.60;;;;;;;16.16;96.61;100194.35;4868269;59;1139263;-79
2021/09/17 09:27:24;;;;;;;2.25;1.87;;;;;;;16.21;96.74;100197.84;4822818;59;1138951;-80
2021/09/17 09:32:35;;;;;;;2.22;1.40;;;;;;;16.14;96.59;100194.52;4797837;60;1139052;-80
2021/09/17 09:37:41;;;;;;;3.33;2.17;;;;;;;16.08;97.23;100195.15;4857671;59;1139027;-80
2021/09/17 09:42:48;;;;;;;1.50;1.40;;;;;;;16.01;96.90;100198.14;4884405;59;1138868;-80
2021/09/17 09:47:58;;;;;;;1.87;1.77;;;;;;;15.94;97.26;100177.10;4877712;59;1138882;-79
2021/09/17 09:53:04;;;;;;;2.73;1.70;;;;;;;15.99;97.66;100193.47;4884387;59;1139365;-81
2021/09/17 09:58:11;;;;;;;1.90;1.80;;;;;;;16.01;97.65;100195.98;4851719;59;1138890;-79
2021/09/17 10:03:17;;;;;;;3.43;1.37;;;;;;;16.03;97.71;100189.98;4884178;59;1138929;-81
2021/09/17 10:08:23;;;;;;;3.44;1.24;;;;;;;16.14;98.25;100193.68;4884975;59;1139090;-80
2021/09/17 10:13:29;;;;;;;3.77;1.30;;;;;;;16.28;97.92;100192.20;4885399;59;1138935;-79
2021/09/17 10:18:37;;;;;;;4.08;1.45;;;;;;;16.47;97.52;100187.91;4884952;59;1139005;-78
2021/09/17 10:29:09;;;;;;;2.90;1.47;;;;;;;16.68;96.17;100179.43;5184991;55;46769;-81
2021/09/17 10:34:39;;;;;;;1.07;1.07;;;;;;;16.76;96.11;100177.61;4944850;57;1134801;-78
2021/09/17 10:39:46;;;;;;;6.53;2.37;;;;;;;17.12;95.21;100170.55;4887002;58;1139130;-81
2021/09/17 10:45:14;;;;;;;3.67;1.10;;;;;;;17.41;93.95;100169.51;4924611;58;1139001;-77
2021/09/17 10:50:19;;;;;;;1.47;1.17;;;;;;;17.56;91.72;100179.83;4936002;59;1139071;-80
2021/09/17 10:55:56;;;;;;;1.72;0.90;;;;;;;17.33;90.64;100178.88;4945492;59;1139040;-79
2021/09/17 11:01:01;;;;;;;0.60;0.60;;;;;;;17.33;91.00;100174.02;4919077;59;1139106;-78
2021/09/17 11:06:26;;;;;;;1.23;0.83;;;;;;;17.41;89.73;100168.67;4947930;57;1139084;-77
2021/09/17 11:11:53;;;;;;;1.27;0.90;;;;;;;17.44;89.95;100171.81;4946768;57;1139031;-77
2021/09/17 11:16:52;;;;;;;1.07;0.70;;;;;;;17.45;90.18;100172.15;5000867;57;1138908;-79
2021/09/17 11:22:06;;;;;;;4.17;3.87;;;;;;;17.47;90.25;100180.84;5016699;56;1138973;-80
2021/09/17 11:27:06;;;;;;;2.80;1.43;;;;;;;17.50;89.28;100189.02;5008194;57;1138907;-78
2021/09/17 11:32:12;;;;;;;1.17;1.13;;;;;;;17.47;88.67;100176.83;5018710;57;1138755;-80
2021/09/17 11:37:21;;;;;;;1.23;1.10;;;;;;;17.57;89.94;100183.30;5052925;57;1138851;-81
2021/09/17 11:42:27;;;;;;;1.67;1.17;;;;;;;17.71;89.07;100170.61;5081868;56;1138902;-80
2021/09/17 11:47:33;;;;;;;1.50;1.40;;;;;;;17.80;89.10;100171.39;5081767;57;1138977;-81
2021/09/17 11:52:46;;;;;;;5.37;2.07;;;;;;;17.93;89.00;100167.65;5081544;57;1138988;-81
2021/09/17 11:57:54;;;;;;;17.82;6.60;;;;;;;18.00;87.54;100175.32;5081489;57;1138868;-81
2021/09/17 12:03:08;;;;;;;8.77;4.20;;;;;;;18.11;88.15;100164.72;5081166;57;1140858;-80
2021/09/17 12:08:16;;;;;;;5.50;3.00;;;;;;;18.27;87.54;100161.94;5081550;57;1139043;-81
2021/09/17 12:13:23;;;;;;;14.93;5.43;;;;;;;18.39;86.51;100155.16;5065340;56;1138998;-81
2021/09/17 12:18:29;;;;;;;1.60;1.22;;;;;;;18.42;84.74;100141.42;5055003;57;1140991;-80
2021/09/17 12:23:40;;;;;;;4.65;1.25;;;;;;;18.33;83.55;100154.55;5066437;57;1138943;-81
2021/09/17 12:28:51;;;;;;;2.72;0.80;;;;;;;18.18;85.04;100162.48;5067399;57;1139165;-80
2021/09/17 12:34:09;;;;;;;0.90;0.90;;;;;;;18.08;84.32;100156.53;5073903;56;1139115;-78
2021/09/17 12:39:14;;;;;;;0.90;0.90;;;;;;;18.00;84.47;100152.58;4990983;58;1139050;-80
2021/09/17 12:44:21;;;;;;;10.63;4.43;;;;;;;18.00;84.86;100145.05;4911808;59;1139173;-80
2021/09/17 12:49:27;;;;;;;5.27;2.37;;;;;;;18.01;85.23;100153.41;4992971;58;1141165;-79
2021/09/17 12:54:38;;;;;;;6.10;1.47;;;;;;;17.97;84.23;100160.11;4946518;57;1138947;-79
2021/09/17 13:00:02;;;;;;;2.60;1.70;;;;;;;17.76;84.65;100160.20;5075625;56;1138974;-78
2021/09/17 13:05:10;;;;;;;2.10;2.00;;;;;;;17.48;85.81;100165.63;5074912;56;1138950;-80
2021/09/17 13:10:16;;;;;;;2.97;1.90;;;;;;;17.23;86.51;100162.20;5073609;56;1139066;-79
2021/09/17 13:15:22;;;;;;;2.37;2.17;;;;;;;17.08;87.91;100174.09;5072180;56;1139020;-79
2021/09/17 13:20:29;;;;;;;3.37;2.60;;;;;;;16.97;88.80;100174.41;4989556;57;1139141;-78
2021/09/17 13:25:37;;;;;;;4.63;3.50;;;;;;;16.82;88.94;100178.77;5081043;56;1138997;-79
2021/09/17 13:30:44;;;;;;;4.63;3.50;;;;;;;16.78;89.52;100179.63;5022281;57;1138985;-80
2021/09/17 13:35:50;;;;;;;2.30;2.10;;;;;;;16.86;90.67;100175.59;5026131;56;1139055;-79
2021/09/17 13:40:56;;;;;;;5.03;3.00;;;;;;;16.97;90.30;100169.56;5005503;57;1138848;-81
2021/09/17 13:46:02;;;;;;;2.67;2.57;;;;;;;16.99;90.33;100171.58;4941412;57;1138817;-79
2021/09/17 13:51:08;;;;;;;3.07;2.87;;;;;;;16.95;89.78;100167.59;5063587;56;1138854;-80
2021/09/17 13:56:14;;;;;;;5.03;4.73;;;;;;;16.92;88.74;100179.95;5152563;56;1138930;-80
2021/09/17 14:01:20;;;;;;;5.27;4.73;;;;;;;16.75;89.77;100184.45;5123903;56;1138971;-80
2021/09/17 14:06:26;;;;;;;3.40;3.10;;;;;;;16.75;89.77;100184.45;5080966;57;1138917;-78
2021/09/17 14:11:32;;;;;;;6.50;3.50;;;;;;;16.78;90.43;100174.78;4964824;58;1138955;-78
2021/09/17 14:16:38;;;;;;;2.80;2.60;;;;;;;16.86;90.32;100180.10;5003692;57;1138857;-79
2021/09/17 14:21:45;;;;;;;5.60;4.00;;;;;;;16.93;90.30;100176.27;4965291;57;1139091;-80
2021/09/17 14:26:51;;;;;;;2.97;2.77;;;;;;;16.98;90.05;100172.58;5103572;56;1138906;-78
2021/09/17 14:31:56;;;;;;;3.90;3.60;;;;;;;17.03;89.81;100172.41;4951649;58;1138971;-80
2021/09/17 14:37:03;;;;;;;2.13;2.03;;;;;;;17.06;88.26;100176.59;4803175;59;1138995;-80
2021/09/17 14:42:08;;;;;;;2.64;2.44;;;;;;;17.17;88.49;100173.56;4828875;59;1138893;-81
2021/09/17 14:47:14;;;;;;;2.70;2.50;;;;;;;17.26;87.37;100168.55;4949745;58;1139052;-80
2021/09/17 14:52:20;;;;;;;4.77;2.77;;;;;;;17.24;87.29;100175.89;4915179;58;1138816;-81
2021/09/17 14:57:26;;;;;;;7.40;2.20;;;;;;;17.28;87.66;100170.52;4769284;59;1139009;-78
2021/09/17 15:02:32;;;;;;;2.45;1.82;;;;;;;17.30;86.93;100171.69;4928353;57;1138987;-79
2021/09/17 15:07:37;;;;;;;2.62;2.12;;;;;;;17.31;86.62;100166.67;4859476;59;1139069;-79
2021/09/17 15:12:43;;;;;;;3.40;2.80;;;;;;;17.31;87.08;100168.02;4778559;60;1139021;-79
2021/09/17 15:17:49;;;;;;;5.70;2.83;;;;;;;17.36;86.93;100165.67;4786476;59;1139304;-79
2021/09/17 15:22:54;;;;;;;3.04;2.74;;;;;;;17.39;86.95;100166.67;4949201;58;1138845;-79
2021/09/17 15:28:00;;;;;;;2.20;2.00;;;;;;;17.47;86.93;100169.31;4981763;56;1138833;-79
2021/09/17 15:33:07;;;;;;;2.80;1.57;;;;;;;17.49;86.14;100168.14;5038174;56;1138847;-79
2021/09/17 15:38:13;;;;;;;0.93;0.93;;;;;;;17.40;85.38;100169.68;5097575;56;1138969;-79
2021/09/17 15:43:21;;;;;;;0.63;0.63;;;;;;;17.31;85.53;100173.36;5113493;56;1138890;-79
2021/09/17 15:48:27;;;;;;;0.40;0.40;;;;;;;17.13;85.22;100179.73;5101076;56;1138931;-79
2021/09/17 15:53:32;;;;;;;1.55;0.62;;;;;;;16.97;85.46;100185.59;5089685;56;1139006;-79
2021/09/17 15:58:39;;;;;;;4.47;1.93;;;;;;;16.82;85.92;100194.29;5130607;56;1138964;-78
2021/09/17 16:03:44;;;;;;;2.07;1.00;;;;;;;16.76;86.24;100200.81;5134159;56;1139243;-79
2021/09/17 16:08:51;;;;;;;0.80;0.70;;;;;;;16.65;86.70;100203.82;4978044;57;1138967;-78
2021/09/17 16:13:57;;;;;;;2.23;1.27;;;;;;;16.47;87.94;100210.10;4967584;57;1139127;-78
2021/09/17 16:19:02;;;;;;;2.77;2.10;;;;;;;16.34;88.37;100211.58;5040287;56;1139051;-78
2021/09/17 16:24:08;;;;;;;2.00;1.80;;;;;;;16.27;88.50;100214.05;5047900;56;1138954;-77
2021/09/17 16:29:15;;;;;;;4.50;2.37;;;;;;;16.21;89.27;100213.36;4961733;57;1139080;-78
2021/09/17 16:34:22;;;;;;;2.17;1.80;;;;;;;16.17;89.42;100214.20;5009976;57;1139162;-78
2021/09/17 16:39:28;;;;;;;2.35;1.95;;;;;;;16.15;89.79;100210.02;4950703;59;1138939;-78
2021/09/17 16:44:34;;;;;;;7.70;3.80;;;;;;;16.14;91.24;100207.02;4935354;58;1138950;-78
2021/09/17 16:49:42;;;;;;;3.80;2.27;;;;;;;16.05;91.07;100215.97;4915257;57;1138927;-78
2021/09/17 16:54:49;;;;;;;5.27;1.33;;;;;;;15.91;92.87;100213.92;4919136;58;1139026;-78
2021/09/17 16:59:55;;;;;;;2.47;1.10;;;;;;;15.80;92.72;100216.38;5071394;56;1138872;-78
2021/09/17 17:05:00;;;;;;;4.13;1.97;;;;;;;15.74;93.04;100224.52;5011708;56;1138809;-79
2021/09/17 17:10:08;;;;;;;2.90;2.40;;;;;;;15.72;93.42;100219.03;5056341;56;1138808;-79
2021/09/17 17:15:16;;;;;;;2.80;1.93;;;;;;;15.70;93.22;100221.02;5075589;56;1138957;-78
2021/09/17 17:20:24;;;;;;;2.23;1.90;;;;;;;15.64;93.65;100225.64;5001838;57;1139095;-79
2021/09/17 17:25:30;;;;;;;4.17;1.87;;;;;;;15.57;94.03;100232.61;5028554;56;1139056;-78
2021/09/17 17:30:36;;;;;;;2.20;1.20;;;;;;;15.54;94.12;100228.89;5005809;56;1138967;-78
2021/09/17 17:35:42;;;;;;;1.37;0.90;;;;;;;15.47;94.06;100232.67;5050616;56;1138907;-79
2021/09/17 17:40:48;;;;;;;1.20;1.10;;;;;;;15.39;94.76;100237.96;5008346;56;1138944;-78
2021/09/17 17:45:53;;;;;;;0.90;0.90;;;;;;;15.29;94.66;100242.05;5074614;56;1138910;-79
2021/09/17 17:51:01;;;;;;;1.40;0.90;;;;;;;15.19;94.77;100244.47;5074651;56;1138810;-78
2021/09/17 17:56:08;;;;;;;5.43;1.00;;;;;;;15.13;94.62;100244.09;5074580;56;1138791;-79
2021/09/17 18:01:15;;;;;;;3.07;0.93;;;;;;;15.05;94.74;100241.88;5038268;56;1138783;-78
2021/09/17 18:06:21;;;;;;;1.60;1.43;;;;;;;15.00;94.94;100242.33;5037001;56;1139007;-78
2021/09/17 18:11:28;;;;;;;2.98;1.57;;;;;;;14.96;94.43;100250.30;5046983;55;1139283;-78
2021/09/17 18:16:35;;;;;;;4.10;1.40;;;;;;;14.94;94.72;100252.77;5025622;56;1139000;-79
2021/09/17 18:21:44;;;;;;;1.70;1.23;;;;;;;14.89;94.60;100249.73;5003936;56;1138895;-78
2021/09/17 18:26:49;;;;;;;1.57;1.47;;;;;;;14.90;94.68;100254.06;4992049;57;1138808;-78
2021/09/17 18:31:55;;;;;;;2.70;0.77;;;;;;;14.86;95.07;100254.02;5026017;56;1138806;-78
2021/09/17 18:37:02;;;;;;;0.63;0.63;;;;;;;14.82;94.98;100265.46;5043211;56;1138911;-79
2021/09/17 18:42:08;;;;;;;1.93;1.17;;;;;;;14.84;94.95;100263.48;5032646;56;1138875;-78
2021/09/17 18:47:15;;;;;;;2.13;1.30;;;;;;;14.83;95.01;100260.97;5025458;56;1138799;-79
2021/09/17 18:52:22;;;;;;;2.27;1.40;;;;;;;14.80;95.08;100271.46;5004017;57;1139317;-78
2021/09/17 18:57:28;;;;;;;1.50;1.40;;;;;;;14.79;94.86;100272.45;5008085;56;1138826;-78
2021/09/17 19:02:34;;;;;;;7.22;1.37;;;;;;;14.81;95.02;100280.28;5138548;56;1139146;-78
2021/09/17 19:07:42;;;;;;;1.67;1.37;;;;;;;14.81;95.00;100271.80;5044972;56;1138919;-78
2021/09/17 19:12:49;;;;;;;3.50;0.80;;;;;;;14.82;95.34;100274.78;4920114;58;1138992;-78
2021/09/17 19:17:56;;;;;;;1.10;1.00;;;;;;;14.81;95.39;100280.28;4960036;56;1138865;-77
2021/09/17 19:23:03;;;;;;;2.60;1.20;;;;;;;14.80;95.21;100273.28;4960944;56;1138896;-78
2021/09/17 19:28:09;;;;;;;1.03;1.03;;;;;;;14.81;95.44;100274.95;4942587;56;1138891;-77
2021/09/17 19:33:15;;;;;;;1.80;1.00;;;;;;;14.75;95.52;100278.56;4980163;56;1138866;-77
2021/09/17 19:38:21;;;;;;;2.53;1.03;;;;;;;14.74;96.08;100271.56;5036036;56;1138983;-80
2021/09/17 19:43:28;;;;;;;7.10;0.80;;;;;;;14.73;95.93;100285.02;5054585;56;1138807;-78
2021/09/17 19:48:34;;;;;;;1.33;0.93;;;;;;;14.68;95.91;100288.62;5089695;57;21214;-77
2021/09/17 19:53:40;;;;;;;3.47;1.20;;;;;;;14.64;95.99;100284.11;5089757;57;21106;-77
2021/09/17 19:58:47;;;;;;;2.73;0.80;;;;;;;14.66;96.13;100283.47;5089494;57;21106;-79
2021/09/17 20:03:53;;;;;;;0.60;0.60;;;;;;;14.63;96.39;100281.11;5089628;57;21169;-78
2021/09/17 20:09:00;;;;;;;2.37;1.00;;;;;;;14.56;96.47;100283.17;5089652;57;21611;-80
2021/09/17 20:14:06;;;;;;;4.10;1.00;;;;;;;14.51;96.69;100278.81;5089499;57;21154;-80
2021/09/17 20:19:14;;;;;;;1.30;0.97;;;;;;;14.44;97.18;100279.90;5089533;57;21161;-79
2021/09/17 20:24:20;;;;;;;0.87;0.87;;;;;;;14.40;97.07;100281.17;5089589;57;21670;-78
2021/09/17 20:29:26;;;;;;;1.80;0.97;;;;;;;14.39;97.84;100283.45;5089804;57;21185;-79
2021/09/17 20:34:33;;;;;;;1.17;1.07;;;;;;;14.36;97.33;100287.25;5094336;57;21607;-79
2021/09/17 20:39:39;;;;;;;1.03;1.03;;;;;;;14.36;97.08;100294.42;5168999;57;21279;-78
2021/09/17 20:44:45;;;;;;;1.83;1.30;;;;;;;14.36;97.10;100289.91;5156720;57;21166;-77
2021/09/17 20:49:53;;;;;;;1.10;1.10;;;;;;;14.32;97.69;100289.05;5156612;57;21178;-80
2021/09/17 20:55:00;;;;;;;1.27;0.93;;;;;;;14.28;97.42;100288.98;5156840;57;21195;-79
2021/09/17 21:00:07;;;;;;;1.13;0.90;;;;;;;14.26;97.33;100288.30;5156628;57;21151;-79
2021/09/17 21:05:13;;;;;;;1.00;1.00;;;;;;;14.25;97.45;100287.95;5156645;57;21502;-80
2021/09/17 21:10:19;;;;;;;1.70;1.00;;;;;;;14.24;97.50;100283.61;5156562;57;21190;-81
2021/09/17 21:15:25;;;;;;;1.60;1.50;;;;;;;14.18;97.44;100279.73;5156697;57;21238;-80
2021/09/17 21:20:31;;;;;;;1.90;1.50;;;;;;;14.11;97.74;100280.46;5156682;57;21150;-77
2021/09/17 21:25:37;;;;;;;3.37;3.07;;;;;;;14.05;97.50;100281.39;5156552;57;21195;-80
2021/09/17 21:30:42;;;;;;;6.47;3.20;;;;;;;14.03;97.48;100276.73;5156638;57;21159;-80
2021/09/17 21:35:48;;;;;;;3.90;2.43;;;;;;;14.07;97.25;100270.61;5157897;56;22156;-80
2021/09/17 21:40:54;;;;;;;2.50;1.70;;;;;;;14.09;97.18;100275.29;5162191;56;21185;-79
2021/09/17 21:45:59;;;;;;;3.67;1.70;;;;;;;14.08;97.29;100270.95;5173455;56;21095;-77
2021/09/17 21:51:05;;;;;;;6.33;2.30;;;;;;;14.08;97.28;100279.77;5173235;56;21204;-77
2021/09/17 21:56:12;;;;;;;3.27;2.27;;;;;;;14.11;97.12;100273.81;5173375;56;21193;-77
2021/09/17 22:01:17;;;;;;;1.97;1.87;;;;;;;14.14;97.42;100272.20;5173186;56;21201;-79
2021/09/17 22:06:23;;;;;;;1.30;1.30;;;;;;;14.13;97.14;100271.36;5173260;56;21193;-78
2021/09/17 22:11:29;;;;;;;4.60;1.37;;;;;;;14.15;97.03;100269.88;5173141;56;21159;-79
2021/09/17 22:16:35;;;;;;;1.87;1.70;;;;;;;14.17;96.97;100274.08;5173320;56;21210;-79
2021/09/17 22:21:41;;;;;;;3.83;1.43;;;;;;;14.18;96.79;100277.57;5173171;56;21545;-78
2021/09/17 22:26:46;;;;;;;2.00;1.77;;;;;;;14.16;96.68;100280.38;5173304;56;21218;-78
2021/09/17 22:31:52;;;;;;;1.90;1.60;;;;;;;14.18;96.64;100285.06;5173302;56;21501;-79
2021/09/17 22:36:58;;;;;;;2.87;2.13;;;;;;;14.18;96.67;100282.89;5170698;56;21682;-78
2021/09/17 22:42:05;;;;;;;2.30;1.40;;;;;;;14.17;96.59;100294.52;5166439;57;21099;-80
2021/09/17 22:47:10;;;;;;;1.93;1.70;;;;;;;14.15;96.58;100293.33;5157514;57;21162;-77
2021/09/17 22:52:16;;;;;;;1.97;1.27;;;;;;;14.11;96.63;100293.27;5157385;57;21206;-78
2021/09/17 22:57:22;;;;;;;4.30;2.13;;;;;;;14.08;96.53;100291.73;5157533;57;21158;-78
2021/09/17 23:02:28;;;;;;;3.17;1.90;;;;;;;14.07;96.36;100301.19;5157420;57;21195;-79
2021/09/17 23:07:33;;;;;;;3.23;2.13;;;;;;;14.10;96.30;100295.58;5157436;57;21150;-79
2021/09/17 23:12:39;;;;;;;2.17;1.87;;;;;;;14.09;96.35;100292.58;5157420;57;21151;-81
2021/09/17 23:17:45;;;;;;;2.07;1.90;;;;;;;14.10;96.27;100290.27;5157574;57;21166;-78
2021/09/17 23:22:51;;;;;;;1.80;1.50;;;;;;;14.09;96.36;100274.80;5157297;57;21206;-80